Time;durP1;ratioP1;P1;durP2;ratioP2;P2;SDS_P1;SDS_P2;PMS_P1;PMS_P2;Temp;Humidity;BMP_temperature;BMP_pressure;BME280_temperature;BME280_humidity;BME280_pressure;Samples;Min_cycle;Max_cycle;Signal;HPM_P1;HPM_P2
2023/08/28 00:00:06;;;;;;;2.10;1.27;;;12.40;99.90;;;;;;5049089;28;20040;-67
2023/08/28 00:02:31;;;;;;;0.93;0.80;;;12.30;99.90;;;;;;5078068;28;20453;-67
2023/08/28 00:04:57;;;;;;;0.65;0.65;;;12.30;99.90;;;;;;5049477;28;20127;-67
2023/08/28 00:07:23;;;;;;;3.50;1.00;;;12.30;99.90;;;;;;5051899;28;20064;-67
2023/08/28 00:09:48;;;;;;;0.32;0.25;;;12.30;99.90;;;;;;5045034;28;20037;-67
2023/08/28 00:12:15;;;;;;;1.75;1.00;;;12.30;99.90;;;;;;5040413;28;20037;-67
2023/08/28 00:14:40;;;;;;;1.08;0.93;;;12.30;99.90;;;;;;5051981;28;20112;-67
2023/08/28 00:17:06;;;;;;;1.40;0.43;;;12.30;99.90;;;;;;5046158;28;20179;-67
2023/08/28 00:19:32;;;;;;;0.20;0.20;;;12.20;99.90;;;;;;5047939;28;20038;-67
2023/08/28 00:21:57;;;;;;;0.70;0.65;;;12.30;99.90;;;;;;5043208;28;20048;-67
2023/08/28 00:24:23;;;;;;;0.32;0.25;;;12.20;99.90;;;;;;5074095;28;20475;-67
2023/08/28 00:26:49;;;;;;;1.00;0.50;;;12.20;99.90;;;;;;5051880;28;20049;-67
2023/08/28 00:29:14;;;;;;;0.65;0.65;;;12.20;99.90;;;;;;5085633;28;20045;-67
2023/08/28 00:31:40;;;;;;;0.45;0.20;;;12.20;99.90;;;;;;5049331;28;20033;-67
2023/08/28 00:34:05;;;;;;;0.75;0.68;;;12.20;99.90;;;;;;5052207;28;20102;-67
2023/08/28 00:36:31;;;;;;;0.77;0.77;;;12.30;99.90;;;;;;5050893;28;20475;-67
2023/08/28 00:42:37;;;;;;;0.70;0.70;;;12.30;99.90;;;;;;5048313;28;20086;-67
2023/08/28 00:45:03;;;;;;;0.30;0.30;;;12.20;99.90;;;;;;5077545;28;20041;-67
2023/08/28 00:47:29;;;;;;;0.50;0.43;;;12.20;99.90;;;;;;5052034;28;20041;-67
2023/08/28 00:49:55;;;;;;;1.30;0.52;;;12.20;99.90;;;;;;5051599;28;20063;-67
2023/08/28 00:52:21;;;;;;;0.77;0.52;;;12.10;99.90;;;;;;5050724;28;20040;-67
2023/08/28 00:54:47;;;;;;;0.30;0.30;;;12.20;99.90;;;;;;5049960;28;20056;-67
2023/08/28 00:57:14;;;;;;;0.22;0.08;;;12.00;99.90;;;;;;5050058;28;20045;-67
2023/08/28 00:59:40;;;;;;;0.52;0.52;;;12.00;99.90;;;;;;5079154;28;20045;-68
2023/08/28 01:02:06;;;;;;;0.38;0.20;;;11.90;99.90;;;;;;5046843;28;20124;-67
2023/08/28 01:04:32;;;;;;;0.13;0.13;;;11.90;99.90;;;;;;5049423;28;20171;-68
2023/08/28 01:10:45;;;;;;;0.20;0.20;;;11.90;99.90;;;;;;5051899;28;20090;-68
2023/08/28 01:13:22;;;;;;;2.47;0.20;;;11.90;99.90;;;;;;5048132;28;20043;-68
2023/08/28 01:15:49;;;;;;;0.10;0.10;;;11.80;99.90;;;;;;5048885;28;20090;-67
2023/08/28 01:18:16;;;;;;;0.20;0.20;;;11.80;99.90;;;;;;5047854;28;20044;-67
2023/08/28 01:20:42;;;;;;;1.80;0.95;;;11.70;99.90;;;;;;5055564;28;20040;-67
2023/08/28 01:23:18;;;;;;;0.57;0.43;;;11.50;99.90;;;;;;5072495;28;20534;-67
2023/08/28 01:25:44;;;;;;;0.98;0.65;;;11.50;99.90;;;;;;5086293;28;20399;-66
2023/08/28 01:28:09;;;;;;;0.45;0.45;;;11.50;99.90;;;;;;5055276;28;20119;-67
2023/08/28 01:30:35;;;;;;;0.38;0.38;;;11.50;99.90;;;;;;5055093;28;20395;-68
2023/08/28 01:33:01;;;;;;;0.55;0.38;;;11.50;99.90;;;;;;5056283;28;20083;-67
2023/08/28 01:35:29;;;;;;;3.80;0.40;;;11.50;99.90;;;;;;5054782;28;20083;-67
2023/08/28 01:37:58;;;;;;;1.42;0.85;;;11.60;99.90;;;;;;5054616;28;20137;-68
2023/08/28 01:40:29;;;;;;;0.75;0.63;;;11.60;99.90;;;;;;5053773;28;20500;-67
2023/08/28 01:42:56;;;;;;;1.95;0.90;;;11.60;99.90;;;;;;5081944;28;20127;-67
2023/08/28 01:45:22;;;;;;;0.17;0.17;;;11.60;99.90;;;;;;5051764;28;20194;-68
2023/08/28 01:51:28;;;;;;;0.98;0.55;;;11.60;99.90;;;;;;5052463;28;20131;-67
2023/08/28 01:53:54;;;;;;;0.73;0.40;;;11.60;99.90;;;;;;5064115;28;20491;-67
2023/08/28 01:56:23;;;;;;;0.32;0.15;;;11.70;99.90;;;;;;5054228;28;20025;-67
2023/08/28 02:02:29;;;;;;;0.47;0.47;;;11.70;99.90;;;;;;5054021;28;20063;-67
2023/08/28 02:04:55;;;;;;;0.30;0.30;;;11.70;99.90;;;;;;5054682;28;20072;-67
2023/08/28 02:11:01;;;;;;;5.95;1.73;;;11.70;99.90;;;;;;5049828;28;20031;-68
2023/08/28 02:13:27;;;;;;;2.25;0.60;;;11.70;99.90;;;;;;5073478;28;20522;-68
2023/08/28 02:15:53;;;;;;;0.70;0.40;;;11.70;99.90;;;;;;5051510;28;20532;-68
2023/08/28 02:18:18;;;;;;;0.47;0.47;;;11.80;99.90;;;;;;5028517;28;20044;-68
2023/08/28 02:20:45;;;;;;;1.83;1.30;;;11.80;99.90;;;;;;5083284;28;20545;-67
2023/08/28 02:23:11;;;;;;;1.80;0.65;;;11.80;99.90;;;;;;5050436;28;20041;-67
2023/08/28 02:29:17;;;;;;;2.72;1.75;;;11.80;99.90;;;;;;5048921;28;20460;-67
2023/08/28 02:31:42;;;;;;;1.38;0.90;;;11.90;99.90;;;;;;5053873;28;20115;-67
2023/08/28 02:34:08;;;;;;;2.33;0.98;;;11.90;99.90;;;;;;5054223;28;20389;-67
2023/08/28 02:36:34;;;;;;;0.75;0.50;;;11.90;99.90;;;;;;5048347;28;20025;-67
2023/08/28 02:38:59;;;;;;;0.65;0.65;;;11.90;99.90;;;;;;5051837;28;20037;-68
2023/08/28 02:41:25;;;;;;;3.80;1.15;;;11.90;99.90;;;;;;5061865;28;20395;-68
2023/08/28 02:43:50;;;;;;;1.00;0.73;;;11.90;99.90;;;;;;5050475;28;20041;-67
2023/08/28 02:49:57;;;;;;;0.50;0.50;;;11.80;99.90;;;;;;5035328;28;20036;-67
2023/08/28 02:52:22;;;;;;;1.63;0.98;;;11.80;99.90;;;;;;5050727;28;20400;-68
2023/08/28 02:54:48;;;;;;;0.68;0.68;;;11.80;99.90;;;;;;5067306;28;20124;-68
2023/08/28 02:57:14;;;;;;;1.38;0.80;;;11.80;99.90;;;;;;5053770;28;20098;-67
2023/08/28 02:59:39;;;;;;;1.08;1.02;;;11.80;99.90;;;;;;5047669;28;20045;-67
2023/08/28 03:02:05;;;;;;;0.85;0.52;;;11.80;99.90;;;;;;5035456;28;20075;-67
2023/08/28 03:04:31;;;;;;;0.77;0.50;;;11.80;99.90;;;;;;5053630;28;20044;-68
2023/08/28 03:06:56;;;;;;;1.52;1.13;;;11.80;99.90;;;;;;5052148;28;20033;-68
2023/08/28 03:13:03;;;;;;;0.13;0.13;;;11.90;99.90;;;;;;5051294;28;20024;-68
2023/08/28 03:15:31;;;;;;;0.82;0.22;;;11.90;99.90;;;;;;5041769;28;20040;-68
2023/08/28 03:17:57;;;;;;;0.43;0.43;;;11.90;99.90;;;;;;5043007;28;20485;-67
2023/08/28 03:24:03;;;;;;;0.68;0.50;;;12.00;99.90;;;;;;5054652;28;20497;-67
2023/08/28 03:26:29;;;;;;;1.17;0.70;;;12.00;99.90;;;;;;5050994;28;20037;-68
2023/08/28 03:28:55;;;;;;;0.30;0.30;;;12.00;99.90;;;;;;5082375;28;20034;-68
2023/08/28 03:31:22;;;;;;;0.90;0.50;;;12.00;99.90;;;;;;5048461;28;20044;-69
2023/08/28 03:33:47;;;;;;;0.20;0.20;;;12.00;99.90;;;;;;5050242;28;20041;-69
2023/08/28 03:36:13;;;;;;;0.47;0.32;;;12.00;99.90;;;;;;5050261;28;20483;-68
2023/08/28 03:38:39;;;;;;;0.47;0.43;;;12.00;99.90;;;;;;5047884;28;20092;-69
2023/08/28 03:41:36;;;;;;;0.55;0.50;;;12.00;99.90;;;;;;5048151;28;20439;-69
2023/08/28 03:44:02;;;;;;;0.95;0.60;;;12.00;99.90;;;;;;5044823;28;20384;-69
2023/08/28 03:46:27;;;;;;;0.20;0.20;;;12.00;99.90;;;;;;5047148;28;20044;-69
2023/08/28 03:48:53;;;;;;;0.47;0.20;;;11.90;99.90;;;;;;5046429;28;20044;-69
2023/08/28 03:55:13;;;;;;;0.52;0.52;;;11.90;99.90;;;;;;5046419;28;20031;-69
2023/08/28 03:57:39;;;;;;;0.60;0.47;;;11.80;99.90;;;;;;5062679;28;20041;-69
2023/08/28 04:00:11;;;;;;;0.45;0.43;;;11.80;99.90;;;;;;5041991;28;20045;-69
2023/08/28 04:02:37;;;;;;;0.55;0.55;;;11.70;99.90;;;;;;5046822;28;20115;-69
2023/08/28 04:05:04;;;;;;;0.50;0.50;;;11.50;99.90;;;;;;5045974;28;20040;-69
2023/08/28 04:07:31;;;;;;;0.68;0.68;;;11.40;99.90;;;;;;5044657;28;20069;-69
2023/08/28 04:10:14;;;;;;;0.57;0.55;;;11.30;99.90;;;;;;5047609;28;20045;-69
2023/08/28 04:12:40;;;;;;;0.22;0.20;;;11.30;99.90;;;;;;5077137;28;20498;-69
2023/08/28 04:15:09;;;;;;;2.08;0.55;;;11.20;99.90;;;;;;5029105;28;20048;-69
2023/08/28 04:17:35;;;;;;;1.50;0.22;;;11.20;99.90;;;;;;5044925;28;20117;-69
2023/08/28 04:20:14;;;;;;;0.85;0.30;;;11.20;99.90;;;;;;5047124;28;20087;-70
2023/08/28 04:22:43;;;;;;;0.57;0.50;;;11.20;99.90;;;;;;5077233;28;20048;-69
2023/08/28 04:25:10;;;;;;;0.17;0.17;;;11.20;99.90;;;;;;5047591;28;20506;-69
2023/08/28 04:27:37;;;;;;;0.30;0.20;;;11.20;99.90;;;;;;5045149;28;20072;-68
2023/08/28 04:30:03;;;;;;;2.28;0.45;;;11.20;99.90;;;;;;5043789;28;20040;-69
2023/08/28 04:32:29;;;;;;;0.00;0.00;;;11.10;99.90;;;;;;5047162;28;20609;-69
2023/08/28 04:34:55;;;;;;;0.00;0.00;;;11.10;99.90;;;;;;5046249;28;20068;-70
2023/08/28 04:37:22;;;;;;;0.75;0.70;;;11.10;99.90;;;;;;5040736;28;20122;-70
2023/08/28 04:39:47;;;;;;;0.77;0.60;;;11.10;99.90;;;;;;5077570;28;20049;-70
2023/08/28 04:45:54;;;;;;;2.17;0.60;;;11.10;99.90;;;;;;5047658;28;20083;-68
2023/08/28 04:48:20;;;;;;;0.47;0.20;;;11.20;99.90;;;;;;5033085;28;20037;-69
2023/08/28 04:50:45;;;;;;;1.35;0.63;;;11.20;99.90;;;;;;5043881;28;20124;-69
2023/08/28 04:53:11;;;;;;;0.90;0.60;;;11.20;99.90;;;;;;5066580;28;20033;-69
2023/08/28 04:55:39;;;;;;;1.50;0.40;;;11.30;99.90;;;;;;5047076;28;20488;-69
2023/08/28 05:01:38;;;;;;;0.47;0.47;;;11.40;99.90;;;;;;5048494;28;20043;-69
2023/08/28 05:04:04;;;;;;;0.35;0.35;;;11.50;99.90;;;;;;5042164;28;20037;-69
2023/08/28 05:06:33;;;;;;;1.27;0.75;;;11.50;99.90;;;;;;5043082;28;20049;-69
2023/08/28 05:08:59;;;;;;;4.50;1.63;;;11.50;99.90;;;;;;5032502;28;20112;-69
2023/08/28 05:11:25;;;;;;;0.63;0.47;;;11.50;99.90;;;;;;5049676;28;20108;-69
2023/08/28 05:17:13;;;;;;;3.60;1.25;;;11.60;99.90;;;;;;5042679;28;20079;-68
2023/08/28 05:19:38;;;;;;;0.50;0.47;;;11.60;99.90;;;;;;5049128;28;20072;-68
2023/08/28 05:25:45;;;;;;;0.43;0.43;;;11.70;99.90;;;;;;5045410;28;20032;-69
2023/08/28 05:28:10;;;;;;;0.32;0.30;;;11.70;99.90;;;;;;5048001;28;20111;-69
2023/08/28 05:30:36;;;;;;;1.20;1.00;;;11.70;99.90;;;;;;5066315;28;20454;-70
2023/08/28 05:33:02;;;;;;;1.60;1.50;;;11.80;99.90;;;;;;5046447;28;20044;-69
2023/08/28 05:35:27;;;;;;;1.00;0.95;;;11.80;99.90;;;;;;5051256;28;20125;-69
2023/08/28 05:38:39;;;;;;;0.57;0.57;;;11.80;99.90;;;;;;5051834;28;20504;-69
2023/08/28 05:41:04;;;;;;;0.38;0.38;;;11.90;99.90;;;;;;5051382;28;20132;-69
2023/08/28 05:43:45;;;;;;;0.47;0.47;;;11.90;99.90;;;;;;5041684;28;20127;-70
2023/08/28 05:46:11;;;;;;;2.78;1.15;;;11.90;99.90;;;;;;5083379;28;20389;-69
2023/08/28 05:48:36;;;;;;;0.75;0.65;;;11.90;99.90;;;;;;5050329;28;20037;-69
2023/08/28 05:54:43;;;;;;;0.68;0.57;;;12.10;99.90;;;;;;5056061;28;20036;-69
2023/08/28 05:57:08;;;;;;;2.72;1.27;;;12.10;99.90;;;;;;5053541;28;20041;-68
2023/08/28 05:59:34;;;;;;;0.77;0.65;;;12.20;99.90;;;;;;5064709;28;20037;-68
2023/08/28 06:05:41;;;;;;;1.33;0.55;;;12.30;99.90;;;;;;5047486;28;20039;-67
2023/08/28 06:08:06;;;;;;;2.83;1.10;;;12.40;99.90;;;;;;5087716;28;20045;-68
2023/08/28 06:10:32;;;;;;;0.73;0.73;;;12.50;99.90;;;;;;5068506;28;20388;-68
2023/08/28 06:12:58;;;;;;;0.65;0.65;;;12.60;99.90;;;;;;5054847;28;20045;-67
2023/08/28 06:15:25;;;;;;;0.30;0.30;;;12.60;99.90;;;;;;5054940;28;20091;-66
2023/08/28 06:17:50;;;;;;;2.35;0.75;;;12.70;99.90;;;;;;5054816;28;20510;-66
2023/08/28 06:20:16;;;;;;;0.50;0.47;;;12.80;99.90;;;;;;5054666;28;20033;-67
2023/08/28 06:26:22;;;;;;;1.67;0.95;;;13.00;99.90;;;;;;5055821;28;20082;-66
2023/08/28 06:32:29;;;;;;;0.30;0.30;;;13.20;99.90;;;;;;5055652;28;20040;-66
2023/08/28 06:34:54;;;;;;;0.45;0.45;;;13.30;99.90;;;;;;5054190;28;20041;-66
2023/08/28 06:37:20;;;;;;;1.35;0.82;;;13.40;99.90;;;;;;5054070;28;20056;-67
2023/08/28 06:39:45;;;;;;;0.50;0.50;;;13.50;99.90;;;;;;5053756;28;20040;-67
2023/08/28 06:42:12;;;;;;;0.52;0.52;;;13.70;99.90;;;;;;5053048;28;20407;-67
2023/08/28 06:44:37;;;;;;;0.90;0.90;;;13.70;99.90;;;;;;5052921;28;20044;-66
2023/08/28 06:47:05;;;;;;;1.33;0.47;;;13.80;99.90;;;;;;5053493;28;20045;-67
2023/08/28 06:49:31;;;;;;;0.38;0.38;;;13.90;99.90;;;;;;5053681;28;20041;-66
2023/08/28 06:51:56;;;;;;;1.20;0.57;;;14.00;99.90;;;;;;5052080;28;20040;-66
2023/08/28 06:54:22;;;;;;;0.30;0.30;;;14.20;99.90;;;;;;5049220;28;20036;-66
2023/08/28 06:56:47;;;;;;;0.52;0.30;;;14.20;99.90;;;;;;5051960;28;20048;-66
2023/08/28 06:59:13;;;;;;;0.50;0.50;;;14.30;99.90;;;;;;5084227;28;20041;-66
2023/08/28 07:01:38;;;;;;;0.68;0.57;;;14.40;99.90;;;;;;5050126;28;20041;-66
2023/08/28 07:04:04;;;;;;;1.65;0.45;;;14.50;99.90;;;;;;5047594;28;20506;-66
2023/08/28 07:06:30;;;;;;;0.93;0.35;;;14.60;99.90;;;;;;5048100;28;20049;-67
2023/08/28 07:08:56;;;;;;;0.43;0.43;;;14.70;99.90;;;;;;5079060;28;20142;-68
2023/08/28 07:11:22;;;;;;;0.75;0.40;;;14.70;99.90;;;;;;5039553;28;20086;-69
2023/08/28 07:13:47;;;;;;;0.10;0.10;;;14.80;99.90;;;;;;5040661;28;20444;-67
2023/08/28 07:16:13;;;;;;;1.20;1.13;;;15.00;99.90;;;;;;5047155;28;20044;-69
2023/08/28 07:18:38;;;;;;;0.32;0.32;;;15.00;99.90;;;;;;5047386;28;20395;-68
2023/08/28 07:21:05;;;;;;;0.35;0.35;;;15.10;99.90;;;;;;5064643;28;20103;-69
2023/08/28 07:23:30;;;;;;;0.52;0.30;;;15.20;99.90;;;;;;5078915;28;20047;-69
2023/08/28 07:26:08;;;;;;;0.63;0.47;;;15.30;99.90;;;;;;5034423;28;20032;-69
2023/08/28 07:28:34;;;;;;;1.83;0.30;;;15.40;99.90;;;;;;5047249;28;20119;-68
2023/08/28 07:31:03;;;;;;;1.70;0.95;;;15.40;99.90;;;;;;5051670;28;20478;-67
2023/08/28 07:33:29;;;;;;;1.55;0.63;;;15.50;99.90;;;;;;5046998;28;20048;-67
2023/08/28 07:35:55;;;;;;;0.73;0.73;;;15.60;99.90;;;;;;5083026;28;20079;-70
2023/08/28 07:38:22;;;;;;;1.75;0.82;;;15.70;99.90;;;;;;5048507;28;20041;-68
2023/08/28 07:40:49;;;;;;;0.10;0.10;;;15.70;99.90;;;;;;5051468;28;20159;-70
2023/08/28 07:43:24;;;;;;;2.17;0.75;;;15.80;99.90;;;;;;5046097;28;20037;-68
2023/08/28 07:45:50;;;;;;;0.75;0.60;;;15.90;99.90;;;;;;5045192;28;20098;-70
2023/08/28 07:48:16;;;;;;;0.63;0.63;;;15.90;99.90;;;;;;5079730;28;20045;-69
2023/08/28 07:50:45;;;;;;;0.10;0.10;;;16.00;99.90;;;;;;5049230;28;20060;-71
2023/08/28 07:53:12;;;;;;;0.30;0.25;;;16.10;99.90;;;;;;5045565;28;20399;-69
2023/08/28 07:55:37;;;;;;;0.57;0.40;;;16.20;99.90;;;;;;5046650;28;20083;-69
2023/08/28 07:58:42;;;;;;;0.50;0.50;;;16.20;99.90;;;;;;5046909;28;20487;-68
2023/08/28 08:01:09;;;;;;;0.57;0.57;;;16.30;99.90;;;;;;5047598;28;20052;-69
2023/08/28 08:03:35;;;;;;;1.02;0.93;;;16.40;99.90;;;;;;5051193;28;20041;-70
2023/08/28 08:06:01;;;;;;;0.25;0.25;;;16.50;99.90;;;;;;5048436;28;20514;-71
2023/08/28 08:08:27;;;;;;;0.40;0.40;;;16.60;99.90;;;;;;5046985;28;20041;-69
2023/08/28 08:10:53;;;;;;;0.68;0.52;;;16.60;99.90;;;;;;5083250;28;20041;-70
2023/08/28 08:13:18;;;;;;;0.20;0.20;;;16.80;99.90;;;;;;5042008;28;20083;-71
2023/08/28 08:15:44;;;;;;;0.10;0.10;;;16.90;99.90;;;;;;5045606;28;20072;-70
2023/08/28 08:18:09;;;;;;;0.65;0.30;;;17.00;99.90;;;;;;5047348;28;20076;-71
2023/08/28 08:20:35;;;;;;;0.60;0.60;;;17.10;99.90;;;;;;5047164;28;21591;-71
2023/08/28 08:23:00;;;;;;;0.30;0.30;;;17.30;99.90;;;;;;5048859;28;20039;-71
2023/08/28 08:29:10;;;;;;;0.10;0.10;;;17.50;99.90;;;;;;5035761;28;20048;-71
2023/08/28 08:31:36;;;;;;;0.45;0.45;;;17.60;99.90;;;;;;5068525;28;20115;-68
2023/08/28 08:34:02;;;;;;;0.20;0.20;;;17.80;99.90;;;;;;5049376;28;20547;-68
2023/08/28 08:36:35;;;;;;;0.10;0.10;;;17.90;99.90;;;;;;5035679;28;20068;-69
2023/08/28 08:39:00;;;;;;;0.10;0.10;;;18.00;99.90;;;;;;5051159;28;20037;-69
2023/08/28 08:41:26;;;;;;;0.00;0.00;;;18.00;99.90;;;;;;5051517;28;20036;-69
2023/08/28 08:43:52;;;;;;;0.10;0.10;;;17.80;99.90;;;;;;5084697;28;20037;-69
2023/08/28 08:46:19;;;;;;;0.20;0.20;;;17.70;99.90;;;;;;5050584;28;20045;-70
2023/08/28 08:52:26;;;;;;;0.00;0.00;;;17.30;99.90;;;;;;5051976;28;20074;-68
2023/08/28 08:54:56;;;;;;;0.10;0.10;;;17.20;99.90;;;;;;5050682;28;20075;-70
2023/08/28 08:57:42;;;;;;;0.00;0.00;;;17.10;99.90;;;;;;5046321;28;20420;-73
2023/08/28 09:00:15;;;;;;;0.10;0.10;;;17.10;99.90;;;;;;5031993;28;20056;-69
2023/08/28 09:02:41;;;;;;;0.10;0.10;;;17.30;99.90;;;;;;5042392;28;20056;-70
2023/08/28 09:05:09;;;;;;;0.38;0.10;;;17.50;99.90;;;;;;5037156;28;20037;-70
2023/08/28 09:07:37;;;;;;;0.10;0.10;;;17.70;99.90;;;;;;5049584;28;20048;-69
2023/08/28 09:10:04;;;;;;;0.20;0.20;;;17.80;99.90;;;;;;5051499;28;20047;-70
2023/08/28 09:12:30;;;;;;;0.03;0.03;;;18.00;99.90;;;;;;5051491;28;20048;-72
2023/08/28 09:14:57;;;;;;;0.00;0.00;;;18.10;99.90;;;;;;5033679;28;20044;-70
2023/08/28 09:17:25;;;;;;;0.40;0.40;;;18.20;99.90;;;;;;5034159;28;20092;-70
2023/08/28 09:19:52;;;;;;;0.22;0.22;;;18.20;99.90;;;;;;5048199;28;20045;-68
2023/08/28 09:22:21;;;;;;;0.10;0.10;;;18.40;99.90;;;;;;5079948;28;20037;-68
2023/08/28 09:24:51;;;;;;;0.10;0.10;;;18.40;99.90;;;;;;5051009;28;20044;-69
2023/08/28 09:27:18;;;;;;;0.20;0.20;;;18.40;99.90;;;;;;5051551;28;20071;-71
2023/08/28 09:33:25;;;;;;;0.00;0.00;;;18.60;99.90;;;;;;5045963;28;20031;-70
2023/08/28 09:35:50;;;;;;;0.25;0.10;;;18.70;99.90;;;;;;5089024;28;20033;-69
2023/08/28 09:38:16;;;;;;;0.13;0.13;;;18.70;99.90;;;;;;5053606;28;20107;-69
2023/08/28 09:40:42;;;;;;;0.20;0.20;;;18.80;99.90;;;;;;5054509;28;20055;-70
2023/08/28 09:43:12;;;;;;;0.10;0.10;;;18.80;99.90;;;;;;5084068;28;20102;-70
2023/08/28 09:45:38;;;;;;;0.10;0.10;;;18.80;99.90;;;;;;5054587;28;20101;-71
2023/08/28 09:48:05;;;;;;;0.10;0.10;;;19.00;99.90;;;;;;5054632;28;20090;-69
2023/08/28 09:50:32;;;;;;;0.10;0.10;;;19.00;99.90;;;;;;5088368;28;20093;-69
2023/08/28 09:53:30;;;;;;;0.75;0.38;;;19.10;99.90;;;;;;5071698;28;20123;-68
2023/08/28 09:55:57;;;;;;;0.00;0.00;;;19.20;99.90;;;;;;5057568;28;20435;-69
2023/08/28 09:58:25;;;;;;;0.20;0.20;;;19.20;99.90;;;;;;5043565;28;20124;-68
2023/08/28 10:00:52;;;;;;;4.03;0.40;;;19.20;99.90;;;;;;5052899;28;20045;-68
2023/08/28 10:03:22;;;;;;;0.10;0.10;;;19.30;99.90;;;;;;5052268;28;20404;-68
2023/08/28 10:05:49;;;;;;;0.03;0.03;;;19.30;99.90;;;;;;5054361;28;20045;-71
2023/08/28 10:08:16;;;;;;;0.20;0.10;;;19.40;99.90;;;;;;5052514;28;20037;-69
2023/08/28 10:10:47;;;;;;;0.00;0.00;;;19.40;99.90;;;;;;5053769;28;20048;-71
2023/08/28 10:13:55;;;;;;;0.20;0.20;;;19.50;99.90;;;;;;5047252;28;20094;-70
2023/08/28 10:16:24;;;;;;;0.03;0.03;;;19.60;99.90;;;;;;5047267;28;20053;-69
2023/08/28 10:18:59;;;;;;;0.10;0.10;;;19.60;99.90;;;;;;5040765;28;20046;-69
2023/08/28 10:24:43;;;;;;;0.00;0.00;;;19.30;99.90;;;;;;5051156;28;20040;-70
2023/08/28 10:27:10;;;;;;;0.00;0.00;;;19.20;99.90;;;;;;5087431;28;20048;-71
2023/08/28 10:30:03;;;;;;;0.10;0.10;;;19.20;99.90;;;;;;5050402;28;20040;-70
2023/08/28 10:32:30;;;;;;;0.10;0.10;;;19.30;99.90;;;;;;5051666;28;20040;-69
2023/08/28 10:34:57;;;;;;;0.00;0.00;;;19.50;99.90;;;;;;5052734;28;20865;-70
2023/08/28 10:37:22;;;;;;;0.00;0.00;;;19.60;99.90;;;;;;5035520;28;20496;-70
2023/08/28 10:39:49;;;;;;;0.03;0.03;;;19.80;99.90;;;;;;5051676;28;20255;-70
2023/08/28 10:42:19;;;;;;;0.10;0.10;;;19.80;99.90;;;;;;5052536;28;20186;-67
2023/08/28 10:44:47;;;;;;;0.55;0.20;;;20.00;99.90;;;;;;5037538;28;20056;-70
2023/08/28 10:47:19;;;;;;;0.10;0.10;;;20.10;99.90;;;;;;5072467;28;20052;-68
2023/08/28 10:49:45;;;;;;;0.03;0.03;;;19.80;99.90;;;;;;5020231;28;20037;-68
2023/08/28 10:55:53;;;;;;;0.17;0.10;;;19.40;99.90;;;;;;5048915;28;20395;-68
2023/08/28 10:58:37;;;;;;;0.10;0.10;;;19.10;99.90;;;;;;5049844;28;20047;-69
2023/08/28 11:05:13;;;;;;;0.10;0.10;;;19.10;99.90;;;;;;5053205;28;20036;-69
2023/08/28 11:08:07;;;;;;;0.20;0.20;;;19.30;99.90;;;;;;5050047;28;20052;-69
2023/08/28 11:10:33;;;;;;;2.92;0.43;;;19.50;99.90;;;;;;5086725;28;20329;-71
2023/08/28 11:16:25;;;;;;;4.30;0.22;;;20.00;99.90;;;;;;5050411;28;20059;-68
2023/08/28 11:18:56;;;;;;;0.38;0.38;;;20.10;99.90;;;;;;5046469;28;20037;-69
2023/08/28 11:21:23;;;;;;;0.35;0.35;;;20.20;99.90;;;;;;5051533;28;20029;-71
2023/08/28 11:23:51;;;;;;;0.10;0.10;;;20.10;99.90;;;;;;5045633;28;20041;-71
2023/08/28 11:26:29;;;;;;;0.08;0.08;;;20.00;99.90;;;;;;5050130;28;20041;-77
2023/08/28 11:28:54;;;;;;;0.00;0.00;;;19.70;99.90;;;;;;5069575;28;20130;-75
2023/08/28 11:31:20;;;;;;;0.03;0.03;;;19.70;99.90;;;;;;5033666;28;20107;-71
2023/08/28 11:33:51;;;;;;;0.20;0.20;;;19.70;99.90;;;;;;5048671;28;20045;-73
2023/08/28 11:36:18;;;;;;;0.10;0.10;;;19.60;99.90;;;;;;5049308;28;20044;-72
2023/08/28 11:38:45;;;;;;;0.10;0.10;;;19.40;99.90;;;;;;5049248;28;20055;-70
2023/08/28 11:41:11;;;;;;;0.17;0.17;;;19.40;99.90;;;;;;5050571;28;20048;-71
2023/08/28 11:43:41;;;;;;;0.10;0.10;;;19.50;99.90;;;;;;5083137;28;20041;-75
2023/08/28 11:46:08;;;;;;;0.00;0.00;;;19.80;99.90;;;;;;5083617;28;20048;-76
2023/08/28 11:48:39;;;;;;;0.10;0.10;;;19.90;99.90;;;;;;5047066;28;20033;-71
2023/08/28 11:51:07;;;;;;;0.65;0.25;;;20.10;99.90;;;;;;5048042;28;20112;-73
2023/08/28 11:53:40;;;;;;;0.10;0.10;;;20.20;99.90;;;;;;5047955;28;20033;-70
2023/08/28 11:56:06;;;;;;;0.03;0.03;;;20.30;99.90;;;;;;5038006;28;20127;-70
2023/08/28 11:58:33;;;;;;;0.00;0.00;;;20.30;99.90;;;;;;5040717;28;20037;-72
2023/08/28 12:01:07;;;;;;;0.10;0.10;;;20.30;99.90;;;;;;5072674;28;20045;-72
2023/08/28 12:03:36;;;;;;;0.10;0.10;;;20.30;99.90;;;;;;5041501;28;20344;-70
2023/08/28 12:06:07;;;;;;;0.00;0.00;;;20.30;99.90;;;;;;5039855;28;20285;-69
2023/08/28 12:08:41;;;;;;;0.10;0.10;;;20.40;99.90;;;;;;5043062;28;20130;-69
2023/08/28 12:11:08;;;;;;;0.20;0.20;;;20.40;99.90;;;;;;5042219;28;20045;-70
2023/08/28 12:13:35;;;;;;;0.10;0.10;;;20.30;99.90;;;;;;5080377;28;20083;-69
2023/08/28 12:16:15;;;;;;;0.10;0.10;;;20.20;99.90;;;;;;5047389;28;20044;-69
2023/08/28 12:18:52;;;;;;;0.10;0.10;;;20.20;99.90;;;;;;5048739;28;20049;-70
2023/08/28 12:21:34;;;;;;;0.00;0.00;;;20.10;99.90;;;;;;5042165;28;20124;-70
2023/08/28 12:24:00;;;;;;;0.10;0.10;;;20.10;99.90;;;;;;5045427;28;20047;-68
2023/08/28 12:26:30;;;;;;;0.20;0.20;;;20.10;99.90;;;;;;5043898;28;20062;-70
2023/08/28 12:28:57;;;;;;;0.00;0.00;;;20.10;99.90;;;;;;5043881;28;20162;-69
2023/08/28 12:31:30;;;;;;;0.10;0.10;;;20.10;99.90;;;;;;5044370;28;20083;-68
2023/08/28 12:33:56;;;;;;;0.00;0.00;;;20.00;99.90;;;;;;5074518;28;20102;-70
2023/08/28 12:36:36;;;;;;;0.00;0.00;;;20.00;99.90;;;;;;5040134;28;20119;-71
2023/08/28 12:39:03;;;;;;;0.28;0.28;;;20.00;99.90;;;;;;5056331;28;20120;-71
2023/08/28 12:41:34;;;;;;;0.00;0.00;;;20.00;99.90;;;;;;5042011;28;20052;-67
2023/08/28 12:44:00;;;;;;;0.10;0.10;;;20.20;99.90;;;;;;5044650;28;20060;-68
2023/08/28 12:46:26;;;;;;;0.35;0.35;;;20.20;99.90;;;;;;5039249;28;20045;-70
2023/08/28 12:48:52;;;;;;;0.10;0.10;;;20.20;99.90;;;;;;5040597;28;20373;-67
2023/08/28 12:51:20;;;;;;;0.20;0.20;;;20.20;99.90;;;;;;5079881;28;20029;-69
2023/08/28 12:53:45;;;;;;;0.10;0.10;;;20.20;99.90;;;;;;5043330;28;20099;-69
2023/08/28 12:56:12;;;;;;;0.22;0.22;;;20.20;99.90;;;;;;5039715;28;20064;-67
2023/08/28 12:58:38;;;;;;;0.20;0.20;;;20.30;99.90;;;;;;5040664;28;20041;-66
2023/08/28 13:01:04;;;;;;;0.10;0.10;;;20.40;99.90;;;;;;5045852;28;20045;-69
2023/08/28 13:03:30;;;;;;;0.10;0.10;;;20.40;99.90;;;;;;5042563;28;20094;-68
2023/08/28 13:05:55;;;;;;;0.00;0.00;;;20.40;99.90;;;;;;5085453;28;20646;-69
2023/08/28 13:08:21;;;;;;;0.10;0.10;;;20.30;99.90;;;;;;5048402;28;20045;-68
2023/08/28 13:10:47;;;;;;;0.10;0.10;;;20.40;99.90;;;;;;5049646;28;20121;-69
2023/08/28 13:13:13;;;;;;;0.32;0.32;;;20.40;99.90;;;;;;5082907;28;20087;-71
2023/08/28 13:15:39;;;;;;;0.10;0.10;;;20.40;99.90;;;;;;5051793;28;20044;-70
2023/08/28 13:18:05;;;;;;;0.20;0.20;;;20.30;99.90;;;;;;5049554;28;20040;-68
2023/08/28 13:20:30;;;;;;;0.20;0.10;;;20.40;99.90;;;;;;5051549;28;20082;-69
2023/08/28 13:22:56;;;;;;;0.00;0.00;;;20.50;99.90;;;;;;5043545;28;20040;-70
2023/08/28 13:25:22;;;;;;;2.88;0.20;;;20.50;99.90;;;;;;5045279;28;20434;-67
2023/08/28 13:27:48;;;;;;;0.43;0.30;;;20.20;99.90;;;;;;5044968;28;20041;-68
2023/08/28 13:30:14;;;;;;;0.10;0.10;;;20.00;99.90;;;;;;5061859;28;20395;-66
2023/08/28 13:32:45;;;;;;;0.17;0.17;;;19.80;99.90;;;;;;5042542;28;20136;-70
2023/08/28 13:35:11;;;;;;;0.00;0.00;;;19.70;99.90;;;;;;5047829;28;20064;-65
2023/08/28 13:37:37;;;;;;;0.20;0.20;;;19.60;99.90;;;;;;5043556;28;20102;-67
2023/08/28 13:40:03;;;;;;;0.10;0.10;;;19.50;99.90;;;;;;5046294;28;20107;-68
2023/08/28 13:42:29;;;;;;;0.15;0.15;;;19.50;99.90;;;;;;5044323;28;20041;-69
2023/08/28 13:44:54;;;;;;;0.10;0.10;;;19.50;99.90;;;;;;5046045;28;20068;-69
2023/08/28 13:47:20;;;;;;;0.10;0.10;;;19.50;99.90;;;;;;5038611;28;20130;-67
2023/08/28 13:49:46;;;;;;;0.10;0.10;;;19.40;99.90;;;;;;5047740;28;20033;-68
2023/08/28 13:52:11;;;;;;;0.17;0.17;;;19.40;99.90;;;;;;5047371;28;20032;-67
2023/08/28 13:54:37;;;;;;;0.00;0.00;;;19.40;99.90;;;;;;5041914;28;20172;-69
2023/08/28 13:57:03;;;;;;;0.05;0.05;;;19.30;99.90;;;;;;5043927;28;20406;-70
2023/08/28 13:59:28;;;;;;;0.10;0.10;;;19.20;99.90;;;;;;5047962;28;20484;-67
2023/08/28 14:01:54;;;;;;;0.10;0.10;;;19.20;99.90;;;;;;5046089;28;20029;-67
2023/08/28 14:04:19;;;;;;;0.10;0.10;;;19.20;99.90;;;;;;5046306;28;20045;-69
2023/08/28 14:06:45;;;;;;;0.03;0.03;;;19.20;99.90;;;;;;5077355;28;20028;-67
2023/08/28 14:09:11;;;;;;;0.00;0.00;;;19.20;99.90;;;;;;5044438;28;20045;-68
2023/08/28 14:11:36;;;;;;;0.40;0.20;;;19.30;99.90;;;;;;5045170;28;20136;-68
2023/08/28 14:14:02;;;;;;;0.13;0.13;;;19.40;99.90;;;;;;5044327;28;20041;-69
2023/08/28 14:16:28;;;;;;;0.13;0.13;;;19.50;99.90;;;;;;5043280;28;20360;-69
2023/08/28 14:18:54;;;;;;;0.25;0.25;;;19.50;99.90;;;;;;5041241;28;20086;-70
2023/08/28 14:21:19;;;;;;;0.10;0.10;;;19.50;99.90;;;;;;5044348;28;20037;-67